This is the latest recevied weather packets stored in our database for station/object KJ5FA-10. If no packets are shown the sender has not sent any weather packets the latest 10 day(s).
| Time | Temp. | Humidity | Pressure | Rain* | Wind** | Luminosity | Snow |
|---|---|---|---|---|---|---|---|
| 1788308848 | 32.78° C | 48% | 1015.5 hPa | 0 mm | - | - | - |
| 1788307951 | 33.89° C | 46% | 1015.4 hPa | 0 mm | - | - | - |
| 1788307050 | 34.44° C | 44% | 1015.3 hPa | 0 mm | - | - | - |
| 1788305249 | 35° C | 44% | 1015.5 hPa | 0 mm | - | - | - |
| 1788304349 | 35° C | 43% | 1015.7 hPa | 0 mm | - | - | - |
| 1788303450 | 35.56° C | 43% | 1015.5 hPa | 0 mm | - | - | - |
| 1788302549 | 35.56° C | 42% | 1015.6 hPa | 0 mm | - | - | - |
| 1788299850 | 36.11° C | 43% | 1015.5 hPa | 0 mm | - | - | - |
| 1788298949 | 37.22° C | 41% | 1015.6 hPa | 0 mm | - | - | - |
| 1788298049 | 36.67° C | 42% | 1015.7 hPa | 0 mm | - | - | - |
| 1788297150 | 37.78° C | 41% | 1015.8 hPa | 0 mm | - | - | - |
| 1788295349 | 36.11° C | 42% | 1016.2 hPa | 0 mm | - | - | - |
| 1788294449 | 36.11° C | 43% | 1016.3 hPa | 0 mm | - | - | - |
| 1788293549 | 37.22° C | 41% | 1016.3 hPa | 0 mm | - | - | - |
| 1788292649 | 37.22° C | 40% | 1016.5 hPa | 0 mm | - | - | - |
| 1788291749 | 37.22° C | 40% | 1016.8 hPa | 0 mm | - | - | - |
| 1788290849 | 36.67° C | 42% | 1016.7 hPa | 0 mm | - | - | - |
| 1788289949 | 35.56° C | 45% | 1017 hPa | 0 mm | - | - | - |
| 1788289050 | 35.56° C | 43% | 1017.1 hPa | 0 mm | - | - | - |
| 1788288149 | 35.56° C | 44% | 1017.3 hPa | 0 mm | - | - | - |
| 1788287249 | 36.11° C | 42% | 1017.4 hPa | 0 mm | - | - | - |
| 1788286349 | 36.11° C | 45% | 1017.7 hPa | 0 mm | - | - | - |
| 1788285451 | 35.56° C | 46% | 1017.8 hPa | 0 mm | - | - | - |
| 1788284549 | 36.11° C | 44% | 1018.4 hPa | 0 mm | - | - | - |
| 1788283650 | 35.56° C | 45% | 1018.3 hPa | 0 mm | - | - | - |
* Rain latest hour (hover to see other rain measurements)
** Current wind speed in m/s (hover to see current wind gust speed)